createdAt,value
2022-12-29T08:24:18.448Z,6.30
2022-12-29T08:26:52.557Z,6.23
2022-12-29T08:29:20.624Z,6.63
2022-12-29T08:31:48.068Z,6.47
2022-12-29T08:34:15.736Z,6.50
2022-12-29T08:36:43.082Z,6.20
2022-12-29T08:39:10.451Z,6.63
2022-12-29T08:41:37.801Z,7.40
2022-12-29T08:44:05.250Z,6.70
2022-12-29T08:46:32.782Z,6.00
2022-12-29T08:49:00.198Z,6.10
2022-12-29T08:51:27.693Z,6.27
2022-12-29T08:53:55.205Z,7.07
2022-12-29T08:56:24.779Z,6.50
2022-12-29T08:58:56.051Z,6.20
2022-12-29T09:01:24.954Z,6.57
2022-12-29T09:04:14.332Z,6.10
2022-12-29T09:06:40.714Z,6.30
2022-12-29T09:09:08.635Z,6.77
2022-12-29T09:11:36.054Z,6.17
2022-12-29T09:14:03.517Z,6.43
2022-12-29T09:16:31.053Z,6.33
2022-12-29T09:18:58.459Z,6.23
2022-12-29T09:21:25.942Z,6.03
2022-12-29T09:23:54.305Z,6.10
2022-12-29T09:26:21.781Z,6.63
2022-12-29T09:28:49.145Z,6.40
2022-12-29T09:31:16.572Z,6.10
2022-12-29T09:33:44.147Z,6.07
2022-12-29T09:36:11.451Z,6.10
2022-12-29T09:38:38.816Z,6.27
2022-12-29T09:45:27.904Z,5.90
2022-12-29T09:47:55.310Z,6.00
2022-12-29T09:50:39.010Z,6.67
2022-12-29T09:53:25.033Z,6.47
2022-12-29T09:56:24.204Z,5.80
2022-12-29T09:58:54.610Z,6.17
2022-12-29T10:01:22.071Z,6.78
2022-12-29T10:03:55.002Z,6.37
2022-12-29T10:06:36.154Z,5.83
2022-12-29T10:09:08.823Z,6.23
2022-12-29T10:12:04.570Z,6.50
2022-12-29T10:14:42.167Z,6.17
2022-12-29T10:17:28.473Z,6.20
2022-12-29T10:20:21.146Z,6.00
2022-12-29T10:23:08.756Z,6.57
2022-12-29T10:25:40.220Z,7.23
2022-12-29T10:28:12.949Z,9.53
2022-12-29T10:30:40.720Z,6.60
2022-12-29T10:33:10.624Z,6.47
2022-12-29T10:35:40.010Z,6.20
2022-12-29T10:38:16.697Z,6.00
2022-12-29T10:40:50.718Z,6.30
2022-12-29T10:43:44.507Z,6.37
2022-12-29T10:46:14.831Z,6.40
2022-12-29T10:48:46.276Z,6.23
2022-12-29T10:51:16.151Z,6.63
2022-12-29T10:53:48.908Z,6.57
2022-12-29T10:56:36.747Z,6.53
2022-12-29T10:59:09.639Z,6.43
2022-12-29T11:01:41.554Z,6.17
2022-12-29T11:04:22.951Z,6.57
2022-12-29T11:06:51.891Z,6.67
2022-12-29T11:09:36.625Z,6.50
2022-12-29T11:12:23.214Z,6.47
2022-12-29T11:15:02.790Z,6.13
2022-12-29T11:17:30.203Z,6.77
2022-12-29T11:19:57.611Z,6.83
2022-12-29T11:22:30.144Z,6.97
2022-12-29T11:25:07.866Z,6.60
2022-12-29T11:27:35.188Z,6.93
2022-12-29T11:30:04.541Z,7.03
2022-12-29T11:32:31.965Z,7.57
2022-12-29T11:35:00.348Z,7.37
2022-12-29T11:37:31.177Z,6.50
2022-12-29T11:40:05.512Z,6.83
2022-12-29T11:42:56.295Z,7.00
2022-12-29T11:45:25.285Z,7.00
2022-12-29T11:47:54.757Z,7.00
2022-12-29T11:50:32.597Z,7.00
2022-12-29T11:53:08.480Z,7.30
2022-12-29T11:55:35.920Z,7.23
2022-12-29T11:58:04.617Z,7.00
2022-12-29T12:00:33.937Z,6.63
2022-12-29T12:03:04.597Z,7.23
2022-12-29T12:05:34.941Z,7.17
2022-12-29T12:08:05.114Z,6.87
2022-12-29T12:10:39.838Z,6.67
2022-12-29T12:13:19.940Z,7.40
2022-12-29T12:15:57.751Z,7.20
2022-12-29T12:18:29.040Z,6.90
2022-12-29T12:20:58.823Z,7.00
2022-12-29T12:23:32.261Z,7.30
2022-12-29T12:26:04.607Z,7.47
2022-12-29T12:28:50.592Z,7.77
2022-12-29T12:31:26.428Z,7.23
2022-12-29T12:33:59.533Z,6.97
2022-12-29T12:36:35.915Z,6.63
2022-12-29T12:39:06.345Z,6.90
2022-12-29T12:41:45.974Z,7.03
2022-12-29T12:44:30.015Z,6.93
2022-12-29T12:47:00.564Z,7.30
2022-12-29T12:49:28.064Z,6.60
2022-12-29T16:39:24.458Z,8.13
2022-12-29T16:41:52.632Z,8.73
2022-12-29T16:44:28.225Z,8.43
2022-12-29T16:47:03.301Z,8.67
2022-12-29T16:49:32.176Z,8.33
2022-12-29T16:51:59.588Z,8.97
2022-12-29T16:54:32.369Z,8.87
2022-12-29T16:57:00.241Z,8.40
2022-12-29T16:59:32.562Z,8.60
2022-12-29T17:02:01.093Z,8.47
2022-12-29T17:04:31.419Z,8.43
2022-12-29T17:06:58.817Z,9.90
2022-12-29T17:09:27.154Z,8.87
2022-12-29T17:12:01.605Z,8.60
2022-12-29T17:14:38.154Z,8.67
2022-12-29T17:17:09.107Z,8.60
2022-12-29T17:19:38.641Z,8.87
2022-12-29T17:22:21.253Z,8.43
2022-12-29T17:24:48.618Z,8.30
2022-12-29T17:27:22.199Z,9.03
2022-12-29T17:29:49.860Z,8.33
2022-12-29T17:32:17.647Z,8.40
2022-12-29T17:34:44.978Z,8.70
2022-12-29T17:37:29.967Z,8.53
2022-12-29T17:39:57.573Z,8.40
2022-12-29T17:42:25.005Z,8.97
2022-12-29T17:44:52.428Z,8.63
2022-12-29T17:47:19.836Z,8.60
2022-12-29T17:49:47.244Z,8.73
2022-12-29T17:52:15.300Z,9.10
2022-12-29T17:54:45.574Z,8.17
2022-12-29T17:57:17.215Z,9.07
2022-12-29T17:59:44.770Z,8.87
2022-12-29T18:02:25.706Z,8.90
2022-12-29T18:04:53.743Z,9.77
2022-12-29T18:07:21.251Z,9.30
2022-12-29T18:09:48.640Z,9.40
2022-12-29T18:12:38.475Z,9.10
2022-12-29T18:15:06.353Z,9.07
2022-12-29T18:17:33.775Z,9.20
2022-12-29T18:20:01.093Z,9.57
2022-12-29T18:22:30.143Z,10.47
2022-12-29T18:24:57.612Z,9.17
2022-12-29T18:27:24.967Z,9.33
2022-12-29T18:29:52.334Z,10.17
2022-12-29T18:32:21.259Z,10.30
2022-12-29T18:34:49.093Z,10.27
2022-12-29T18:37:16.513Z,10.47
2022-12-29T18:39:43.937Z,10.07
2022-12-29T18:42:17.560Z,10.60
2022-12-29T18:44:44.988Z,9.97
2022-12-29T18:47:12.454Z,10.17
2022-12-29T18:49:39.883Z,10.17
2022-12-29T18:52:07.253Z,10.23
2022-12-29T18:54:34.689Z,10.03
2022-12-29T18:57:02.068Z,9.93
2022-12-29T18:59:29.431Z,10.67
2022-12-29T19:01:56.858Z,10.60
2022-12-29T19:04:24.207Z,10.80
2022-12-29T19:06:51.589Z,10.00
2022-12-29T19:09:19.007Z,10.87
2022-12-29T19:11:46.368Z,11.77
2022-12-29T19:14:16.666Z,12.43
2022-12-29T19:16:44.116Z,10.77
2022-12-29T19:19:15.103Z,10.80
2022-12-29T19:21:42.644Z,10.90
2022-12-29T19:24:09.989Z,10.73
2022-12-29T19:26:38.842Z,10.87
2022-12-29T19:29:14.789Z,11.63
2022-12-29T19:31:42.334Z,11.00
2022-12-29T19:34:10.673Z,10.63
2022-12-29T19:36:38.048Z,11.07
2022-12-29T19:39:06.142Z,11.10
2022-12-29T19:41:33.599Z,11.37
2022-12-29T19:44:01.466Z,11.37
2022-12-29T19:46:28.962Z,11.27
2022-12-29T19:48:59.499Z,10.73
2022-12-29T19:51:27.150Z,11.50
2022-12-29T19:53:55.448Z,11.53
2022-12-29T19:56:23.013Z,13.73
2022-12-29T19:58:51.193Z,14.43
2022-12-29T20:01:20.146Z,11.70
2022-12-29T20:03:47.641Z,11.20
2022-12-29T20:06:15.747Z,11.10
2022-12-29T20:08:43.246Z,11.80
2022-12-29T20:11:15.340Z,11.00
2022-12-29T20:13:43.780Z,11.27
2022-12-29T20:16:13.754Z,11.53
2022-12-29T20:18:41.235Z,11.30
2022-12-29T20:21:19.727Z,11.37
2022-12-29T20:23:47.980Z,11.80
2022-12-29T20:26:17.442Z,11.80
2022-12-29T20:28:44.774Z,11.47
2022-12-29T20:31:18.969Z,11.93
2022-12-29T20:33:49.595Z,11.03
2022-12-29T20:36:19.255Z,11.50
2022-12-29T20:38:47.077Z,11.50
2022-12-29T20:41:15.089Z,11.37
2022-12-29T20:43:42.810Z,11.60
2022-12-29T20:46:11.440Z,11.67
2022-12-29T20:48:39.374Z,11.93
2022-12-29T20:51:06.843Z,11.27
2022-12-29T20:53:34.373Z,11.90
2022-12-29T20:56:03.717Z,11.63
2022-12-29T20:58:31.396Z,11.40
2022-12-29T21:01:02.155Z,11.53
2022-12-29T21:03:30.253Z,11.60
2022-12-29T21:05:58.032Z,11.17
2022-12-29T21:08:25.550Z,11.33
2022-12-29T21:10:53.069Z,11.10
2022-12-29T21:13:20.728Z,11.33
2022-12-29T21:15:48.094Z,11.50
2022-12-29T21:18:15.623Z,12.10
2022-12-29T21:20:43.029Z,11.57
2022-12-29T21:23:10.463Z,11.27
2022-12-29T21:25:37.849Z,10.87
2022-12-29T21:28:05.832Z,11.20
2022-12-29T21:30:33.568Z,10.87
2022-12-29T21:33:01.656Z,10.73
2022-12-29T21:35:29.260Z,12.20
2022-12-29T21:37:56.636Z,16.50
2022-12-29T21:40:24.085Z,11.47
2022-12-29T21:42:51.638Z,11.40
2022-12-29T21:45:25.424Z,11.33
2022-12-29T21:48:16.618Z,11.50
2022-12-29T21:51:04.103Z,11.03
2022-12-29T21:53:39.023Z,11.70
2022-12-29T21:56:07.660Z,11.00
2022-12-29T21:59:08.559Z,12.10
2022-12-29T22:01:55.965Z,12.17
2022-12-29T22:04:43.759Z,12.03
2022-12-29T22:07:30.435Z,11.03
2022-12-29T22:10:16.233Z,10.70
2022-12-29T22:12:59.989Z,10.47
2022-12-29T22:15:28.379Z,10.20
2022-12-29T22:17:56.173Z,10.57
2022-12-29T22:20:24.850Z,10.07
2022-12-29T22:22:52.271Z,11.13
2022-12-29T22:25:20.004Z,10.43
2022-12-29T22:27:47.423Z,10.57
2022-12-29T22:30:15.045Z,11.20
2022-12-29T22:32:42.583Z,9.87
2022-12-29T22:35:10.827Z,10.43
2022-12-29T22:37:38.895Z,10.30
